Time,TemperatureF,DewpointF,PressureIn,WindDirection,WindDirectionDegrees,WindSpeedMPH,WindSpeedGustMPH,Humidity,HourlyPrecipIn,Conditions,Clouds,dailyrainin,SoftwareType,DateUTC
2013-10-18 00:04:00,48.7,45.7,29.99,East,90,0.0,0.0,89,0.00,,,0.00,WUHU21623XXSP,2013-10-18 04:04:00,
2013-10-18 00:09:00,48.6,45.5,30.00,East,90,0.0,0.0,89,0.00,,,0.00,WUHU21623XXSP,2013-10-18 04:09:00,
2013-10-18 00:14:00,48.6,45.5,30.00,East,90,0.0,0.0,89,0.00,,,0.00,WUHU21623XXSP,2013-10-18 04:14:00,
2013-10-18 00:19:00,48.4,45.3,30.00,East,90,0.0,0.0,89,0.00,,,0.00,WUHU21623XXSP,2013-10-18 04:19:00,
2013-10-18 00:24:00,48.2,45.2,29.99,East,90,0.0,0.0,89,0.00,,,0.00,WUHU21623XXSP,2013-10-18 04:24:00,
2013-10-18 00:30:00,48.2,45.2,29.99,East,90,0.0,0.0,89,0.00,,,0.00,WUHU21623XXSP,2013-10-18 04:30:00,
2013-10-18 00:35:00,48.0,45.0,29.99,ESE,112,0.0,0.0,89,0.00,,,0.00,WUHU21623XXSP,2013-10-18 04:35:00,
2013-10-18 00:40:00,48.0,45.0,29.99,East,90,0.0,0.0,89,0.00,,,0.00,WUHU21623XXSP,2013-10-18 04:40:00,
2013-10-18 00:45:00,48.0,45.0,29.99,East,90,0.0,0.0,89,0.00,,,0.00,WUHU21623XXSP,2013-10-18 04:45:00,
2013-10-18 00:50:00,48.0,45.0,29.99,ESE,112,0.0,0.0,89,0.00,,,0.00,WUHU21623XXSP,2013-10-18 04:50:00,
2013-10-18 00:55:00,48.0,45.0,29.99,East,90,0.0,0.0,89,0.00,,,0.00,WUHU21623XXSP,2013-10-18 04:55:00,
2013-10-18 01:00:00,48.0,45.0,29.99,East,90,0.0,0.0,89,0.00,,,0.00,WUHU21623XXSP,2013-10-18 05:00:00,
2013-10-18 01:05:00,48.0,45.0,29.99,East,90,0.0,0.0,89,0.00,,,0.00,WUHU21623XXSP,2013-10-18 05:05:00,
2013-10-18 01:10:00,48.0,45.0,29.99,ESE,112,0.0,0.0,89,0.00,,,0.00,WUHU21623XXSP,2013-10-18 05:10:00,
2013-10-18 01:15:00,48.0,45.0,29.99,ESE,112,0.0,0.0,89,0.00,,,0.00,WUHU21623XXSP,2013-10-18 05:15:00,
2013-10-18 01:20:00,48.0,45.0,29.99,East,90,0.0,0.0,89,0.00,,,0.00,WUHU21623XXSP,2013-10-18 05:20:00,
2013-10-18 01:25:00,48.0,45.0,29.99,East,90,0.0,0.0,89,0.00,,,0.00,WUHU21623XXSP,2013-10-18 05:25:00,
2013-10-18 01:30:00,48.0,45.0,29.99,East,90,0.0,0.0,89,0.00,,,0.00,WUHU21623XXSP,2013-10-18 05:30:00,
2013-10-18 01:35:00,48.0,45.0,29.99,ESE,112,0.0,0.0,89,0.00,,,0.00,WUHU21623XXSP,2013-10-18 05:35:00,
2013-10-18 01:40:00,48.0,45.0,29.99,NNE,22,0.0,0.0,89,0.00,,,0.00,WUHU21623XXSP,2013-10-18 05:40:00,
2013-10-18 01:45:00,48.2,45.2,29.99,North,0,0.0,0.0,89,0.00,,,0.00,WUHU21623XXSP,2013-10-18 05:45:00,
2013-10-18 01:51:00,48.0,45.0,29.99,East,90,0.0,0.0,89,0.00,,,0.00,WUHU21623XXSP,2013-10-18 05:51:00,
2013-10-18 01:56:00,48.0,45.0,29.99,East,90,0.0,0.0,89,0.00,,,0.00,WUHU21623XXSP,2013-10-18 05:56:00,
2013-10-18 02:01:00,48.0,45.0,29.99,ESE,112,0.0,0.0,89,0.00,,,0.00,WUHU21623XXSP,2013-10-18 06:01:00,
2013-10-18 02:06:00,48.0,45.0,29.99,East,90,0.0,0.0,89,0.00,,,0.00,WUHU21623XXSP,2013-10-18 06:06:00,
2013-10-18 02:11:00,48.0,45.0,29.99,East,90,0.0,0.0,89,0.00,,,0.00,WUHU21623XXSP,2013-10-18 06:11:00,
2013-10-18 02:16:00,47.8,44.8,29.99,East,90,0.0,0.0,89,0.00,,,0.00,WUHU21623XXSP,2013-10-18 06:16:00,
2013-10-18 02:21:00,47.8,44.8,29.99,East,90,0.0,0.0,89,0.00,,,0.00,WUHU21623XXSP,2013-10-18 06:21:00,
2013-10-18 02:26:00,47.8,44.8,29.99,East,90,0.0,0.0,89,0.00,,,0.00,WUHU21623XXSP,2013-10-18 06:26:00,
2013-10-18 02:31:00,47.5,44.5,29.99,East,90,0.0,0.0,89,0.00,,,0.00,WUHU21623XXSP,2013-10-18 06:31:00,
2013-10-18 02:36:00,47.5,44.5,29.99,East,90,0.0,0.0,89,0.00,,,0.00,WUHU21623XXSP,2013-10-18 06:36:00,
2013-10-18 02:41:00,47.5,44.5,29.99,East,90,0.0,0.0,89,0.00,,,0.00,WUHU21623XXSP,2013-10-18 06:41:00,
2013-10-18 02:46:00,47.1,44.1,29.99,East,90,0.0,0.0,89,0.00,,,0.00,WUHU21623XXSP,2013-10-18 06:46:00,
2013-10-18 02:51:00,47.1,44.1,29.99,East,90,0.0,0.0,89,0.00,,,0.00,WUHU21623XXSP,2013-10-18 06:51:00,
2013-10-18 02:56:00,47.1,44.1,29.99,East,90,0.0,0.0,89,0.00,,,0.00,WUHU21623XXSP,2013-10-18 06:56:00,
2013-10-18 03:01:00,47.1,44.1,29.99,East,90,0.0,0.0,89,0.00,,,0.00,WUHU21623XXSP,2013-10-18 07:01:00,
2013-10-18 03:06:00,47.1,44.1,29.99,East,90,0.0,0.0,89,0.00,,,0.00,WUHU21623XXSP,2013-10-18 07:06:00,
2013-10-18 03:11:00,47.1,44.1,29.99,East,90,0.0,0.0,89,0.00,,,0.00,WUHU21623XXSP,2013-10-18 07:11:00,
2013-10-18 03:17:00,46.9,43.9,29.99,East,90,0.0,0.0,89,0.00,,,0.00,WUHU21623XXSP,2013-10-18 07:17:00,
2013-10-18 03:22:00,46.9,43.9,29.99,East,90,0.0,0.0,89,0.00,,,0.00,WUHU21623XXSP,2013-10-18 07:22:00,
2013-10-18 03:27:00,46.8,43.7,29.99,East,90,0.0,0.0,89,0.00,,,0.00,WUHU21623XXSP,2013-10-18 07:27:00,
2013-10-18 03:32:00,46.6,43.9,29.99,East,90,0.0,0.0,90,0.00,,,0.00,WUHU21623XXSP,2013-10-18 07:32:00,
2013-10-18 03:37:00,46.6,43.9,29.99,East,90,0.0,0.0,90,0.00,,,0.00,WUHU21623XXSP,2013-10-18 07:37:00,
2013-10-18 03:42:00,46.4,43.7,29.99,East,90,0.0,0.0,90,0.00,,,0.00,WUHU21623XXSP,2013-10-18 07:42:00,
2013-10-18 03:47:00,46.2,43.5,30.00,East,90,0.0,0.0,90,0.00,,,0.00,WUHU21623XXSP,2013-10-18 07:47:00,
2013-10-18 03:52:00,46.2,43.5,29.99,East,90,0.0,0.0,90,0.00,,,0.00,WUHU21623XXSP,2013-10-18 07:52:00,
2013-10-18 03:57:00,46.2,43.5,29.99,East,90,0.0,0.0,90,0.00,,,0.00,WUHU21623XXSP,2013-10-18 07:57:00,
2013-10-18 04:02:00,46.2,43.5,29.99,East,90,0.0,0.0,90,0.00,,,0.00,WUHU21623XXSP,2013-10-18 08:02:00,
2013-10-18 04:07:00,46.2,43.5,29.99,East,90,0.0,0.0,90,0.00,,,0.00,WUHU21623XXSP,2013-10-18 08:07:00,
2013-10-18 04:12:00,46.6,43.6,29.99,East,90,0.0,0.0,89,0.00,,,0.00,WUHU21623XXSP,2013-10-18 08:12:00,
2013-10-18 04:17:00,46.6,43.6,29.99,East,90,0.0,0.0,89,0.00,,,0.00,WUHU21623XXSP,2013-10-18 08:17:00,
2013-10-18 04:22:00,46.8,43.7,29.99,East,90,0.0,0.0,89,0.00,,,0.00,WUHU21623XXSP,2013-10-18 08:22:00,
2013-10-18 04:27:00,46.6,43.6,29.99,East,90,0.0,0.0,89,0.00,,,0.00,WUHU21623XXSP,2013-10-18 08:27:00,
2013-10-18 04:32:00,46.6,43.6,30.00,NNE,22,0.0,0.0,89,0.00,,,0.00,WUHU21623XXSP,2013-10-18 08:32:00,
2013-10-18 04:37:00,47.1,44.1,30.00,NNE,22,0.0,0.0,89,0.00,,,0.00,WUHU21623XXSP,2013-10-18 08:37:00,
2013-10-18 04:42:00,47.5,44.5,29.99,NNE,22,0.0,0.0,89,0.00,,,0.00,WUHU21623XXSP,2013-10-18 08:42:00,
2013-10-18 04:47:00,47.8,44.8,30.00,NNE,22,0.0,0.0,89,0.00,,,0.00,WUHU21623XXSP,2013-10-18 08:47:00,
2013-10-18 04:52:00,48.0,45.0,29.99,NNE,22,0.0,0.0,89,0.00,,,0.00,WUHU21623XXSP,2013-10-18 08:52:00,
2013-10-18 04:57:00,48.4,45.3,30.00,NNE,22,0.0,0.0,89,0.00,,,0.00,WUHU21623XXSP,2013-10-18 08:57:00,
2013-10-18 05:03:00,48.6,45.5,30.00,NNE,22,0.0,0.0,89,0.00,,,0.00,WUHU21623XXSP,2013-10-18 09:03:00,
2013-10-18 05:08:00,48.9,46.1,30.00,NNE,22,0.0,0.0,90,0.00,,,0.00,WUHU21623XXSP,2013-10-18 09:08:00,
2013-10-18 05:13:00,48.9,46.1,30.00,East,90,0.0,0.0,90,0.00,,,0.00,WUHU21623XXSP,2013-10-18 09:13:00,
2013-10-18 05:18:00,49.1,46.3,30.00,East,90,0.0,0.0,90,0.00,,,0.00,WUHU21623XXSP,2013-10-18 09:18:00,
2013-10-18 05:23:00,49.1,46.3,30.00,East,90,0.0,0.0,90,0.00,,,0.00,WUHU21623XXSP,2013-10-18 09:23:00,
2013-10-18 05:28:00,49.1,46.3,30.00,East,90,0.0,0.0,90,0.00,,,0.00,WUHU21623XXSP,2013-10-18 09:28:00,
2013-10-18 05:33:00,49.1,46.3,30.00,East,90,0.0,0.0,90,0.00,,,0.00,WUHU21623XXSP,2013-10-18 09:33:00,
2013-10-18 05:38:00,49.1,46.3,30.00,East,90,0.0,0.0,90,0.00,,,0.00,WUHU21623XXSP,2013-10-18 09:38:00,
2013-10-18 05:43:00,49.1,46.3,30.00,East,90,0.0,0.0,90,0.00,,,0.00,WUHU21623XXSP,2013-10-18 09:43:00,
2013-10-18 05:48:00,49.1,46.3,30.00,East,90,0.0,0.0,90,0.00,,,0.00,WUHU21623XXSP,2013-10-18 09:48:00,
2013-10-18 05:53:00,49.1,46.3,30.00,East,90,0.0,0.0,90,0.00,,,0.00,WUHU21623XXSP,2013-10-18 09:53:00,
2013-10-18 05:58:00,49.1,46.3,30.00,East,90,1.7,1.9,90,0.00,,,0.00,WUHU21623XXSP,2013-10-18 09:58:00,
2013-10-18 06:03:00,48.9,46.1,30.00,ESE,112,0.0,1.9,90,0.00,,,0.00,WUHU21623XXSP,2013-10-18 10:03:00,
2013-10-18 06:08:00,48.9,46.1,30.00,East,90,0.0,1.9,90,0.00,,,0.00,WUHU21623XXSP,2013-10-18 10:08:00,
2013-10-18 06:13:00,48.9,46.1,30.01,East,90,0.0,0.0,90,0.00,,,0.00,WUHU21623XXSP,2013-10-18 10:13:00,
2013-10-18 06:18:00,48.7,46.0,30.01,NNE,22,0.0,0.0,90,0.00,,,0.00,WUHU21623XXSP,2013-10-18 10:18:00,
2013-10-18 06:23:00,48.7,45.7,30.01,East,90,0.0,0.0,89,0.00,,,0.00,WUHU21623XXSP,2013-10-18 10:23:00,
2013-10-18 06:29:00,48.6,45.5,30.01,East,90,0.0,0.0,89,0.00,,,0.00,WUHU21623XXSP,2013-10-18 10:29:00,
2013-10-18 06:34:00,48.6,45.5,30.01,East,90,0.0,0.0,89,0.00,,,0.00,WUHU21623XXSP,2013-10-18 10:34:00,
2013-10-18 06:39:00,48.4,45.3,30.01,East,90,0.0,0.0,89,0.00,,,0.00,WUHU21623XXSP,2013-10-18 10:39:00,
2013-10-18 06:44:00,48.4,45.3,30.01,East,90,0.0,0.0,89,0.00,,,0.00,WUHU21623XXSP,2013-10-18 10:44:00,
2013-10-18 06:49:00,48.4,45.3,30.01,East,90,0.0,0.0,89,0.00,,,0.00,WUHU21623XXSP,2013-10-18 10:49:00,
2013-10-18 06:54:00,48.4,45.3,30.01,NNE,22,0.0,0.0,89,0.00,,,0.00,WUHU21623XXSP,2013-10-18 10:54:00,
2013-10-18 06:59:00,48.4,45.3,30.01,NNE,22,0.0,0.0,89,0.00,,,0.00,WUHU21623XXSP,2013-10-18 10:59:00,
2013-10-18 07:04:00,48.4,45.3,30.02,NNE,22,0.0,0.0,89,0.00,,,0.00,WUHU21623XXSP,2013-10-18 11:04:00,
2013-10-18 07:09:00,48.4,45.3,30.01,NNE,22,0.0,0.0,89,0.00,,,0.00,WUHU21623XXSP,2013-10-18 11:09:00,
2013-10-18 07:14:00,48.6,45.5,30.01,NNE,22,0.0,0.0,89,0.00,,,0.00,WUHU21623XXSP,2013-10-18 11:14:00,
2013-10-18 07:19:00,48.6,45.5,30.02,NNE,22,0.0,0.0,89,0.00,,,0.00,WUHU21623XXSP,2013-10-18 11:19:00,
2013-10-18 07:24:00,48.6,45.5,30.01,NNE,22,0.0,0.0,89,0.00,,,0.00,WUHU21623XXSP,2013-10-18 11:24:00,
2013-10-18 07:29:00,48.6,45.5,30.02,NNE,22,0.0,0.0,89,0.00,,,0.00,WUHU21623XXSP,2013-10-18 11:29:00,
2013-10-18 07:34:00,48.4,45.3,30.02,NNE,22,0.0,0.0,89,0.00,,,0.00,WUHU21623XXSP,2013-10-18 11:34:00,
2013-10-18 07:39:00,48.4,45.3,30.01,East,90,0.0,0.0,89,0.00,,,0.00,WUHU21623XXSP,2013-10-18 11:39:00,
2013-10-18 07:44:00,48.4,45.3,30.01,East,90,0.0,0.0,89,0.00,,,0.00,WUHU21623XXSP,2013-10-18 11:44:00,
2013-10-18 07:49:00,48.4,45.3,30.02,East,90,0.0,0.0,89,0.00,,,0.00,WUHU21623XXSP,2013-10-18 11:49:00,
2013-10-18 07:54:00,48.2,45.2,30.03,NNE,22,0.0,0.0,89,0.00,,,0.00,WUHU21623XXSP,2013-10-18 11:54:00,
2013-10-18 07:59:00,48.0,45.0,30.03,NNE,22,0.0,0.0,89,0.00,,,0.00,WUHU21623XXSP,2013-10-18 11:59:00,
2013-10-18 08:05:00,48.0,45.0,30.03,NNE,22,0.0,0.0,89,0.00,,,0.00,WUHU21623XXSP,2013-10-18 12:05:00,
2013-10-18 08:10:00,48.4,45.3,30.03,NNE,22,0.0,0.0,89,0.00,,,0.00,WUHU21623XXSP,2013-10-18 12:10:00,
2013-10-18 08:15:00,48.4,45.3,30.04,NNE,22,0.0,0.0,89,0.00,,,0.00,WUHU21623XXSP,2013-10-18 12:15:00,
2013-10-18 08:20:00,48.6,45.5,30.03,NNE,22,0.0,0.0,89,0.00,,,0.00,WUHU21623XXSP,2013-10-18 12:20:00,
2013-10-18 08:25:00,48.6,45.5,30.03,NNE,22,0.0,0.0,89,0.00,,,0.00,WUHU21623XXSP,2013-10-18 12:25:00,
2013-10-18 08:30:00,48.7,46.0,30.04,NNE,22,0.0,0.0,90,0.00,,,0.00,WUHU21623XXSP,2013-10-18 12:30:00,
2013-10-18 08:35:00,48.9,46.1,30.04,NNE,22,0.0,0.0,90,0.00,,,0.00,WUHU21623XXSP,2013-10-18 12:35:00,
2013-10-18 08:40:00,49.1,46.3,30.04,ESE,112,0.0,0.0,90,0.00,,,0.00,WUHU21623XXSP,2013-10-18 12:40:00,
2013-10-18 08:45:00,49.6,46.8,30.04,NNE,22,0.0,0.0,90,0.00,,,0.00,WUHU21623XXSP,2013-10-18 12:45:00,
2013-10-18 08:50:00,49.6,46.8,30.04,North,0,0.0,0.0,90,0.00,,,0.00,WUHU21623XXSP,2013-10-18 12:50:00,
2013-10-18 08:55:00,49.6,46.8,30.04,NNE,22,0.0,0.0,90,0.00,,,0.00,WUHU21623XXSP,2013-10-18 12:55:00,
2013-10-18 09:00:00,49.8,47.0,30.04,NNE,22,0.0,0.0,90,0.00,,,0.00,WUHU21623XXSP,2013-10-18 13:00:00,
2013-10-18 09:05:00,49.6,46.8,30.05,NNE,22,0.0,0.0,90,0.00,,,0.00,WUHU21623XXSP,2013-10-18 13:05:00,
2013-10-18 09:10:00,49.6,46.8,30.05,NNE,22,0.0,0.0,90,0.00,,,0.00,WUHU21623XXSP,2013-10-18 13:10:00,
2013-10-18 09:15:00,49.8,47.0,30.05,East,90,1.4,1.7,90,0.00,,,0.00,WUHU21623XXSP,2013-10-18 13:15:00,
2013-10-18 09:20:00,49.8,47.0,30.05,North,0,0.0,1.7,90,0.00,,,0.00,WUHU21623XXSP,2013-10-18 13:20:00,
2013-10-18 09:25:00,49.8,47.0,30.05,NNE,22,0.0,1.7,90,0.00,,,0.00,WUHU21623XXSP,2013-10-18 13:25:00,
2013-10-18 09:30:00,50.0,47.1,30.06,North,0,0.0,0.0,90,0.00,,,0.00,WUHU21623XXSP,2013-10-18 13:30:00,
2013-10-18 09:35:00,50.2,47.0,30.06,WNW,292,0.0,0.0,89,0.00,,,0.00,WUHU21623XXSP,2013-10-18 13:35:00,
2013-10-18 09:41:00,50.5,47.4,30.05,NNE,22,0.0,0.0,89,0.00,,,0.00,WUHU21623XXSP,2013-10-18 13:41:00,
2013-10-18 09:46:00,50.7,47.5,30.05,East,90,0.0,0.0,89,0.00,,,0.00,WUHU21623XXSP,2013-10-18 13:46:00,
2013-10-18 09:51:00,50.7,47.5,30.06,North,0,0.0,0.0,89,0.00,,,0.00,WUHU21623XXSP,2013-10-18 13:51:00,
2013-10-18 09:56:00,50.9,47.7,30.06,East,90,1.7,1.9,89,0.00,,,0.00,WUHU21623XXSP,2013-10-18 13:56:00,
2013-10-18 10:01:00,51.1,48.2,30.06,NNE,22,0.0,1.9,90,0.00,,,0.00,WUHU21623XXSP,2013-10-18 14:01:00,
2013-10-18 10:06:00,51.4,48.6,30.06,NNE,22,0.0,1.9,90,0.00,,,0.00,WUHU21623XXSP,2013-10-18 14:06:00,
2013-10-18 10:11:00,52.0,49.1,30.06,NNE,22,1.2,1.3,90,0.00,,,0.00,WUHU21623XXSP,2013-10-18 14:11:00,
2013-10-18 10:16:00,52.5,49.6,30.06,North,0,0.0,1.3,90,0.00,,,0.00,WUHU21623XXSP,2013-10-18 14:16:00,
2013-10-18 10:21:00,53.4,50.2,30.06,NNE,22,0.0,1.3,89,0.00,,,0.00,WUHU21623XXSP,2013-10-18 14:21:00,
2013-10-18 10:26:00,54.1,51.3,30.06,East,90,0.0,0.0,90,0.00,,,0.00,WUHU21623XXSP,2013-10-18 14:26:00,
2013-10-18 10:31:00,54.7,51.8,30.06,ESE,112,2.3,2.7,90,0.00,,,0.00,WUHU21623XXSP,2013-10-18 14:31:00,
2013-10-18 10:36:00,55.9,52.4,30.06,WNW,292,1.2,2.7,88,0.00,,,0.00,WUHU21623XXSP,2013-10-18 14:36:00,
2013-10-18 10:41:00,56.7,52.8,30.06,North,0,0.0,2.7,87,0.00,,,0.00,WUHU21623XXSP,2013-10-18 14:41:00,
2013-10-18 10:46:00,57.6,53.4,30.06,NNE,22,0.0,1.3,86,0.00,,,0.00,WUHU21623XXSP,2013-10-18 14:46:00,
2013-10-18 10:51:00,58.8,53.7,30.07,NNE,22,1.4,1.7,83,0.00,,,0.00,WUHU21623XXSP,2013-10-18 14:51:00,
2013-10-18 10:56:00,58.8,52.7,30.07,WNW,292,0.0,1.9,80,0.00,,,0.00,WUHU21623XXSP,2013-10-18 14:56:00,
2013-10-18 11:01:00,58.6,52.5,30.07,North,0,1.2,1.9,80,0.00,,,0.00,WUHU21623XXSP,2013-10-18 15:01:00,
2013-10-18 11:07:00,59.2,53.4,30.07,ESE,112,0.0,1.3,81,0.00,,,0.00,WUHU21623XXSP,2013-10-18 15:07:00,
2013-10-18 11:12:00,59.9,53.8,30.07,North,0,0.0,3.0,80,0.00,,,0.00,WUHU21623XXSP,2013-10-18 15:12:00,
2013-10-18 11:17:00,60.6,53.4,30.06,North,0,2.3,3.0,77,0.00,,,0.00,WUHU21623XXSP,2013-10-18 15:17:00,
2013-10-18 11:22:00,61.0,53.4,30.06,WNW,292,0.9,2.7,76,0.00,,,0.00,WUHU21623XXSP,2013-10-18 15:22:00,
2013-10-18 11:27:00,61.5,53.5,30.06,NNE,22,0.0,1.0,75,0.00,,,0.00,WUHU21623XXSP,2013-10-18 15:27:00,
2013-10-18 11:32:00,62.1,53.7,30.06,North,0,1.4,1.9,74,0.00,,,0.00,WUHU21623XXSP,2013-10-18 15:32:00,
2013-10-18 11:37:00,61.9,52.4,30.05,East,90,4.7,5.4,71,0.00,,,0.00,WUHU21623XXSP,2013-10-18 15:37:00,
2013-10-18 11:42:00,61.5,50.9,30.05,ESE,112,3.3,5.4,68,0.00,,,0.00,WUHU21623XXSP,2013-10-18 15:42:00,
2013-10-18 11:47:00,61.5,52.1,30.05,WNW,292,0.0,5.4,71,0.00,,,0.00,WUHU21623XXSP,2013-10-18 15:47:00,
2013-10-18 11:52:00,63.0,52.2,30.05,NNE,22,0.0,3.8,68,0.00,,,0.00,WUHU21623XXSP,2013-10-18 15:52:00,
2013-10-18 11:57:00,63.1,51.5,30.05,NNE,22,1.7,1.9,66,0.00,,,0.00,WUHU21623XXSP,2013-10-18 15:57:00,
2013-10-18 12:02:00,64.0,52.4,30.05,North,0,0.0,1.9,66,0.00,,,0.00,WUHU21623XXSP,2013-10-18 16:02:00,
2013-10-18 12:07:00,64.2,51.7,30.05,WNW,292,0.0,1.9,64,0.00,,,0.00,WUHU21623XXSP,2013-10-18 16:07:00,
2013-10-18 12:12:00,64.6,50.8,30.04,North,0,0.0,1.9,61,0.00,,,0.00,WUHU21623XXSP,2013-10-18 16:12:00,
2013-10-18 12:17:00,65.5,52.5,30.04,WNW,292,0.0,0.0,63,0.00,,,0.00,WUHU21623XXSP,2013-10-18 16:17:00,
2013-10-18 12:22:00,65.5,51.7,30.05,North,0,0.0,0.0,61,0.00,,,0.00,WUHU21623XXSP,2013-10-18 16:22:00,
2013-10-18 12:27:00,65.5,51.7,30.04,SSW,202,0.0,0.0,61,0.00,,,0.00,WUHU21623XXSP,2013-10-18 16:27:00,
2013-10-18 12:32:00,66.0,52.2,30.04,NNE,22,0.9,1.3,61,0.00,,,0.00,WUHU21623XXSP,2013-10-18 16:32:00,
2013-10-18 12:37:00,66.0,51.8,30.04,East,90,0.0,1.3,60,0.00,,,0.00,WUHU21623XXSP,2013-10-18 16:37:00,
2013-10-18 12:42:00,65.5,50.8,30.03,East,90,2.3,2.7,59,0.00,,,0.00,WUHU21623XXSP,2013-10-18 16:42:00,
2013-10-18 12:47:00,64.4,50.6,30.03,North,0,0.0,2.7,61,0.00,,,0.00,WUHU21623XXSP,2013-10-18 16:47:00,
2013-10-18 12:53:00,64.2,50.4,30.03,SSW,202,0.0,1.3,61,0.00,,,0.00,WUHU21623XXSP,2013-10-18 16:53:00,
2013-10-18 12:58:00,64.4,50.6,30.03,WNW,292,1.2,1.3,61,0.00,,,0.00,WUHU21623XXSP,2013-10-18 16:58:00,
2013-10-18 13:03:00,65.1,51.3,30.03,NNE,22,0.0,1.3,61,0.00,,,0.00,WUHU21623XXSP,2013-10-18 17:03:00,
2013-10-18 13:08:00,66.2,52.0,30.03,NNE,22,0.0,1.3,60,0.00,,,0.00,WUHU21623XXSP,2013-10-18 17:08:00,
2013-10-18 13:13:00,65.3,50.6,30.02,North,0,0.0,1.9,59,0.00,,,0.00,WUHU21623XXSP,2013-10-18 17:13:00,
2013-10-18 13:18:00,65.1,49.9,30.02,North,0,0.0,1.9,58,0.00,,,0.00,WUHU21623XXSP,2013-10-18 17:18:00,
2013-10-18 13:23:00,64.9,50.7,30.02,North,0,2.1,2.4,60,0.00,,,0.00,WUHU21623XXSP,2013-10-18 17:23:00,
2013-10-18 13:28:00,65.7,51.4,30.02,WNW,292,1.2,2.4,60,0.00,,,0.00,WUHU21623XXSP,2013-10-18 17:28:00,
2013-10-18 13:33:00,66.2,51.5,30.02,West,270,0.0,2.4,59,0.00,,,0.00,WUHU21623XXSP,2013-10-18 17:33:00,
2013-10-18 13:38:00,66.4,51.7,30.01,WNW,292,2.9,3.3,59,0.00,,,0.00,WUHU21623XXSP,2013-10-18 17:38:00,
2013-10-18 13:43:00,65.8,51.1,30.01,WNW,292,0.0,3.3,59,0.00,,,0.00,WUHU21623XXSP,2013-10-18 17:43:00,
2013-10-18 13:48:00,65.8,50.6,30.01,WNW,292,0.0,3.0,58,0.00,,,0.00,WUHU21623XXSP,2013-10-18 17:48:00,
2013-10-18 13:53:00,65.5,50.8,30.01,WNW,292,0.0,1.3,59,0.00,,,0.00,WUHU21623XXSP,2013-10-18 17:53:00,
2013-10-18 13:58:00,65.5,50.8,30.01,North,0,0.0,2.4,59,0.00,,,0.00,WUHU21623XXSP,2013-10-18 17:58:00,
2013-10-18 14:03:00,65.5,51.3,30.00,East,90,0.0,2.4,60,0.00,,,0.00,WUHU21623XXSP,2013-10-18 18:03:00,
2013-10-18 14:08:00,65.7,51.0,30.00,North,0,0.0,0.0,59,0.00,,,0.00,WUHU21623XXSP,2013-10-18 18:08:00,
2013-10-18 14:13:00,65.5,50.8,30.00,North,0,1.4,1.7,59,0.00,,,0.00,WUHU21623XXSP,2013-10-18 18:13:00,
2013-10-18 14:18:00,65.3,51.1,30.00,WNW,292,1.7,1.9,60,0.00,,,0.00,WUHU21623XXSP,2013-10-18 18:18:00,
2013-10-18 14:23:00,65.8,51.1,30.00,WNW,292,0.0,1.9,59,0.00,,,0.00,WUHU21623XXSP,2013-10-18 18:23:00,
2013-10-18 14:29:00,66.7,51.5,29.99,North,0,2.3,2.7,58,0.00,,,0.00,WUHU21623XXSP,2013-10-18 18:29:00,
2013-10-18 14:34:00,66.0,50.3,29.99,West,270,0.0,2.7,57,0.00,,,0.00,WUHU21623XXSP,2013-10-18 18:34:00,
2013-10-18 14:39:00,65.7,51.4,29.99,North,0,0.0,2.7,60,0.00,,,0.00,WUHU21623XXSP,2013-10-18 18:39:00,
2013-10-18 14:44:00,65.8,51.6,29.98,North,0,1.2,1.3,60,0.00,,,0.00,WUHU21623XXSP,2013-10-18 18:44:00,
2013-10-18 14:49:00,65.7,51.0,29.98,NNE,22,1.2,1.3,59,0.00,,,0.00,WUHU21623XXSP,2013-10-18 18:49:00,
2013-10-18 14:54:00,64.8,49.6,29.98,North,0,1.2,1.3,58,0.00,,,0.00,WUHU21623XXSP,2013-10-18 18:54:00,
2013-10-18 14:59:00,64.0,49.4,29.98,WNW,292,0.0,1.3,59,0.00,,,0.00,WUHU21623XXSP,2013-10-18 18:59:00,
2013-10-18 15:04:00,64.0,50.3,29.98,WNW,292,1.2,1.3,61,0.00,,,0.00,WUHU21623XXSP,2013-10-18 19:04:00,
2013-10-18 15:09:00,64.0,49.9,29.98,WNW,292,0.0,1.3,60,0.00,,,0.00,WUHU21623XXSP,2013-10-18 19:09:00,
2013-10-18 15:14:00,64.0,49.9,29.98,WNW,292,0.0,1.3,60,0.00,,,0.00,WUHU21623XXSP,2013-10-18 19:14:00,
2013-10-18 15:19:00,64.2,50.0,29.98,SSW,202,1.2,1.3,60,0.00,,,0.00,WUHU21623XXSP,2013-10-18 19:19:00,
2013-10-18 15:24:00,64.0,49.4,29.98,North,0,0.0,1.7,59,0.00,,,0.00,WUHU21623XXSP,2013-10-18 19:24:00,
2013-10-18 15:29:00,64.2,49.5,29.98,North,0,1.2,1.7,59,0.00,,,0.00,WUHU21623XXSP,2013-10-18 19:29:00,
2013-10-18 15:34:00,64.2,49.5,29.98,NNE,22,0.0,1.3,59,0.00,,,0.00,WUHU21623XXSP,2013-10-18 19:34:00,
2013-10-18 15:39:00,64.2,49.0,29.97,North,0,0.0,0.0,58,0.00,,,0.00,WUHU21623XXSP,2013-10-18 19:39:00,
2013-10-18 15:44:00,64.0,49.4,29.97,WNW,292,0.0,0.0,59,0.00,,,0.00,WUHU21623XXSP,2013-10-18 19:44:00,
2013-10-18 15:49:00,64.2,49.5,29.97,NNE,22,0.0,0.0,59,0.00,,,0.00,WUHU21623XXSP,2013-10-18 19:49:00,
2013-10-18 15:54:00,64.2,49.0,29.97,SSW,202,0.0,0.0,58,0.00,,,0.00,WUHU21623XXSP,2013-10-18 19:54:00,
2013-10-18 15:59:00,64.2,49.0,29.97,East,90,0.0,0.0,58,0.00,,,0.00,WUHU21623XXSP,2013-10-18 19:59:00,
2013-10-18 16:05:00,64.2,48.1,29.97,NNE,22,0.0,0.0,56,0.00,,,0.00,WUHU21623XXSP,2013-10-18 20:05:00,
2013-10-18 16:10:00,64.2,48.1,29.97,North,0,0.0,0.0,56,0.00,,,0.00,WUHU21623XXSP,2013-10-18 20:10:00,
2013-10-18 16:15:00,63.9,47.3,29.97,SSW,202,1.4,1.7,55,0.00,,,0.00,WUHU21623XXSP,2013-10-18 20:15:00,
2013-10-18 16:20:00,63.7,48.1,29.97,North,0,0.0,1.7,57,0.00,,,0.00,WUHU21623XXSP,2013-10-18 20:20:00,
2013-10-18 16:25:00,64.0,48.4,29.97,NNE,22,0.0,1.7,57,0.00,,,0.00,WUHU21623XXSP,2013-10-18 20:25:00,
2013-10-18 16:30:00,64.2,48.6,29.96,SSW,202,0.0,0.0,57,0.00,,,0.00,WUHU21623XXSP,2013-10-18 20:30:00,
2013-10-18 16:35:00,64.2,48.6,29.96,North,0,0.0,0.0,57,0.00,,,0.00,WUHU21623XXSP,2013-10-18 20:35:00,
2013-10-18 16:40:00,64.6,49.4,29.96,North,0,0.0,0.0,58,0.00,,,0.00,WUHU21623XXSP,2013-10-18 20:40:00,
2013-10-18 16:45:00,64.6,49.4,29.96,NNE,22,0.0,0.0,58,0.00,,,0.00,WUHU21623XXSP,2013-10-18 20:45:00,
2013-10-18 16:50:00,64.6,49.4,29.97,NNE,22,0.0,0.0,58,0.00,,,0.00,WUHU21623XXSP,2013-10-18 20:50:00,
2013-10-18 16:55:00,64.2,49.0,29.96,ESE,112,0.0,0.0,58,0.00,,,0.00,WUHU21623XXSP,2013-10-18 20:55:00,
2013-10-18 17:00:00,64.0,48.9,29.96,East,90,0.0,0.0,58,0.00,,,0.00,WUHU21623XXSP,2013-10-18 21:00:00,
2013-10-18 17:05:00,64.0,48.4,29.96,WNW,292,0.0,0.0,57,0.00,,,0.00,WUHU21623XXSP,2013-10-18 21:05:00,
2013-10-18 17:10:00,63.7,48.6,29.96,North,0,0.0,1.3,58,0.00,,,0.00,WUHU21623XXSP,2013-10-18 21:10:00,
2013-10-18 17:16:00,63.5,48.4,29.96,North,0,0.0,1.3,58,0.00,,,0.00,WUHU21623XXSP,2013-10-18 21:16:00,
2013-10-18 17:21:00,63.1,49.0,29.96,ESE,112,0.0,0.0,60,0.00,,,0.00,WUHU21623XXSP,2013-10-18 21:21:00,
2013-10-18 17:26:00,63.1,49.0,29.96,NNE,22,0.0,0.0,60,0.00,,,0.00,WUHU21623XXSP,2013-10-18 21:26:00,
2013-10-18 17:31:00,63.0,48.9,29.95,NNE,22,0.0,0.0,60,0.00,,,0.00,WUHU21623XXSP,2013-10-18 21:31:00,
2013-10-18 17:36:00,63.0,49.3,29.95,NNE,22,0.0,0.0,61,0.00,,,0.00,WUHU21623XXSP,2013-10-18 21:36:00,
2013-10-18 17:41:00,62.8,49.5,29.95,North,0,0.0,0.0,62,0.00,,,0.00,WUHU21623XXSP,2013-10-18 21:41:00,
2013-10-18 17:46:00,62.4,49.2,29.95,North,0,0.0,0.0,62,0.00,,,0.00,WUHU21623XXSP,2013-10-18 21:46:00,
2013-10-18 17:52:00,62.2,49.1,29.95,East,90,0.0,0.0,62,0.00,,,0.00,WUHU21623XXSP,2013-10-18 21:52:00,
2013-10-18 17:57:00,61.9,49.6,29.95,South,180,0.0,0.0,64,0.00,,,0.00,WUHU21623XXSP,2013-10-18 21:57:00,
2013-10-18 18:02:00,61.3,50.3,29.95,West,270,0.0,0.0,67,0.00,,,0.00,WUHU21623XXSP,2013-10-18 22:02:00,
2013-10-18 18:07:00,60.6,50.5,29.96,SSW,202,0.0,0.0,69,0.00,,,0.00,WUHU21623XXSP,2013-10-18 22:07:00,
2013-10-18 18:12:00,60.4,50.7,29.96,South,180,0.0,0.0,70,0.00,,,0.00,WUHU21623XXSP,2013-10-18 22:12:00,
2013-10-18 18:17:00,59.9,50.9,29.96,South,180,0.0,0.0,72,0.00,,,0.00,WUHU21623XXSP,2013-10-18 22:17:00,
2013-10-18 18:22:00,59.5,50.9,29.96,South,180,0.0,0.0,73,0.00,,,0.00,WUHU21623XXSP,2013-10-18 22:22:00,
2013-10-18 18:27:00,59.2,50.9,29.96,South,180,0.0,0.0,74,0.00,,,0.00,WUHU21623XXSP,2013-10-18 22:27:00,
2013-10-18 18:32:00,58.8,51.3,29.95,ESE,112,0.0,0.0,76,0.00,,,0.00,WUHU21623XXSP,2013-10-18 22:32:00,
2013-10-18 18:37:00,58.6,51.1,29.95,ESE,112,0.0,0.0,76,0.00,,,0.00,WUHU21623XXSP,2013-10-18 22:37:00,
2013-10-18 18:42:00,58.1,50.9,29.95,ESE,112,0.0,0.0,77,0.00,,,0.00,WUHU21623XXSP,2013-10-18 22:42:00,
2013-10-18 18:47:00,57.7,50.5,29.95,ESE,112,0.0,0.0,77,0.00,,,0.00,WUHU21623XXSP,2013-10-18 22:47:00,
2013-10-18 18:52:00,57.4,50.5,29.95,ESE,112,0.0,0.0,78,0.00,,,0.00,WUHU21623XXSP,2013-10-18 22:52:00,
2013-10-18 18:57:00,57.0,50.2,29.95,ESE,112,0.0,0.0,78,0.00,,,0.00,WUHU21623XXSP,2013-10-18 22:57:00,
2013-10-18 19:02:00,56.5,49.6,29.95,ESE,112,0.0,0.0,78,0.00,,,0.00,WUHU21623XXSP,2013-10-18 23:02:00,
2013-10-18 19:07:00,55.9,49.1,29.95,ESE,112,0.0,0.0,78,0.00,,,0.00,WUHU21623XXSP,2013-10-18 23:07:00,
2013-10-18 19:12:00,55.6,48.8,29.95,ESE,112,0.0,0.0,78,0.00,,,0.00,WUHU21623XXSP,2013-10-18 23:12:00,
2013-10-18 19:17:00,55.2,48.8,29.95,ESE,112,0.0,0.0,79,0.00,,,0.00,WUHU21623XXSP,2013-10-18 23:17:00,
2013-10-18 19:22:00,54.9,48.4,29.95,ESE,112,0.0,0.0,79,0.00,,,0.00,WUHU21623XXSP,2013-10-18 23:22:00,
2013-10-18 19:27:00,54.5,48.5,29.96,ESE,112,0.0,0.0,80,0.00,,,0.00,WUHU21623XXSP,2013-10-18 23:27:00,
2013-10-18 19:33:00,54.3,48.6,29.96,East,90,0.0,0.0,81,0.00,,,0.00,WUHU21623XXSP,2013-10-18 23:33:00,
2013-10-18 19:38:00,53.8,48.1,29.96,ESE,112,0.0,0.0,81,0.00,,,0.00,WUHU21623XXSP,2013-10-18 23:38:00,
2013-10-18 19:43:00,53.4,48.1,29.96,ESE,112,0.0,0.0,82,0.00,,,0.00,WUHU21623XXSP,2013-10-18 23:43:00,
2013-10-18 19:48:00,53.4,48.1,29.96,East,90,0.0,0.0,82,0.00,,,0.00,WUHU21623XXSP,2013-10-18 23:48:00,
2013-10-18 19:53:00,53.1,47.7,29.95,ESE,112,0.0,0.0,82,0.00,,,0.00,WUHU21623XXSP,2013-10-18 23:53:00,
2013-10-18 19:58:00,52.9,47.6,29.96,ESE,112,0.0,0.0,82,0.00,,,0.00,WUHU21623XXSP,2013-10-18 23:58:00,
2013-10-18 20:03:00,52.5,47.5,29.96,ESE,112,0.0,0.0,83,0.00,,,0.00,WUHU21623XXSP,2013-10-19 00:03:00,
2013-10-18 20:08:00,52.2,47.4,29.96,East,90,0.0,0.0,84,0.00,,,0.00,WUHU21623XXSP,2013-10-19 00:08:00,
2013-10-18 20:14:00,52.0,47.6,29.97,East,90,0.0,0.0,85,0.00,,,0.00,WUHU21623XXSP,2013-10-19 00:14:00,
2013-10-18 20:19:00,51.6,47.2,29.97,ESE,112,0.0,0.0,85,0.00,,,0.00,WUHU21623XXSP,2013-10-19 00:19:00,
2013-10-18 20:24:00,51.4,47.3,29.97,East,90,0.0,0.0,86,0.00,,,0.00,WUHU21623XXSP,2013-10-19 00:24:00,
2013-10-18 20:29:00,51.3,47.2,29.97,South,180,0.0,0.0,86,0.00,,,0.00,WUHU21623XXSP,2013-10-19 00:29:00,
2013-10-18 20:34:00,51.1,47.0,29.96,ESE,112,0.0,0.0,86,0.00,,,0.00,WUHU21623XXSP,2013-10-19 00:34:00,
2013-10-18 20:39:00,50.9,46.8,29.97,ESE,112,0.0,0.0,86,0.00,,,0.00,WUHU21623XXSP,2013-10-19 00:39:00,
2013-10-18 20:44:00,50.7,46.6,29.96,ESE,112,0.0,0.0,86,0.00,,,0.00,WUHU21623XXSP,2013-10-19 00:44:00,
2013-10-18 20:49:00,50.7,46.9,29.96,East,90,0.0,0.0,87,0.00,,,0.00,WUHU21623XXSP,2013-10-19 00:49:00,
2013-10-18 20:54:00,50.5,46.7,29.95,East,90,0.0,0.0,87,0.00,,,0.00,WUHU21623XXSP,2013-10-19 00:54:00,
2013-10-18 20:59:00,50.5,46.7,29.96,East,90,0.0,0.0,87,0.00,,,0.00,WUHU21623XXSP,2013-10-19 00:59:00,
2013-10-18 21:04:00,50.5,46.7,29.96,East,90,0.0,0.0,87,0.00,,,0.00,WUHU21623XXSP,2013-10-19 01:04:00,
2013-10-18 21:10:00,50.4,46.6,29.97,East,90,0.0,0.0,87,0.00,,,0.00,WUHU21623XXSP,2013-10-19 01:10:00,
2013-10-18 21:15:00,50.2,46.4,29.97,East,90,0.0,0.0,87,0.00,,,0.00,WUHU21623XXSP,2013-10-19 01:15:00,
2013-10-18 21:20:00,50.2,46.7,29.97,ESE,112,0.0,0.0,88,0.00,,,0.00,WUHU21623XXSP,2013-10-19 01:20:00,
2013-10-18 21:25:00,50.2,46.7,29.97,ESE,112,0.0,0.0,88,0.00,,,0.00,WUHU21623XXSP,2013-10-19 01:25:00,
2013-10-18 21:30:00,50.0,46.5,29.97,East,90,0.0,0.0,88,0.00,,,0.00,WUHU21623XXSP,2013-10-19 01:30:00,
2013-10-18 21:35:00,50.0,46.5,29.98,SSW,202,0.0,0.0,88,0.00,,,0.00,WUHU21623XXSP,2013-10-19 01:35:00,
2013-10-18 21:40:00,50.0,46.5,29.98,ESE,112,0.0,0.0,88,0.00,,,0.00,WUHU21623XXSP,2013-10-19 01:40:00,
2013-10-18 21:45:00,50.0,46.5,29.98,East,90,0.0,0.0,88,0.00,,,0.00,WUHU21623XXSP,2013-10-19 01:45:00,
2013-10-18 21:50:00,49.8,46.3,29.98,East,90,0.0,0.0,88,0.00,,,0.00,WUHU21623XXSP,2013-10-19 01:50:00,
2013-10-18 21:55:00,49.8,46.3,29.98,ESE,112,0.0,0.0,88,0.00,,,0.00,WUHU21623XXSP,2013-10-19 01:55:00,
2013-10-18 22:00:00,49.8,46.3,29.98,ESE,112,0.0,0.0,88,0.00,,,0.00,WUHU21623XXSP,2013-10-19 02:00:00,
2013-10-18 22:05:00,49.8,46.3,29.98,East,90,0.0,0.0,88,0.00,,,0.00,WUHU21623XXSP,2013-10-19 02:05:00,
2013-10-18 22:10:00,49.6,46.5,29.99,ESE,112,0.0,0.0,89,0.00,,,0.00,WUHU21623XXSP,2013-10-19 02:10:00,
2013-10-18 22:16:00,49.6,46.5,29.99,ESE,112,0.0,0.0,89,0.00,,,0.00,WUHU21623XXSP,2013-10-19 02:16:00,
2013-10-18 22:21:00,49.6,46.5,29.99,East,90,0.0,0.0,89,0.00,,,0.00,WUHU21623XXSP,2013-10-19 02:21:00,
2013-10-18 22:26:00,49.6,46.5,29.99,ESE,112,0.0,0.0,89,0.00,,,0.00,WUHU21623XXSP,2013-10-19 02:26:00,
2013-10-18 22:31:00,49.6,46.5,29.99,East,90,0.0,0.0,89,0.00,,,0.00,WUHU21623XXSP,2013-10-19 02:31:00,
2013-10-18 22:36:00,49.6,46.5,29.98,NNE,22,0.0,0.0,89,0.00,,,0.00,WUHU21623XXSP,2013-10-19 02:36:00,
2013-10-18 22:41:00,49.6,46.5,29.98,East,90,0.0,0.0,89,0.00,,,0.00,WUHU21623XXSP,2013-10-19 02:41:00,
2013-10-18 22:46:00,49.6,46.5,29.98,East,90,0.0,0.0,89,0.00,,,0.00,WUHU21623XXSP,2013-10-19 02:46:00,
2013-10-18 22:51:00,49.6,46.5,29.98,East,90,0.0,0.0,89,0.00,,,0.00,WUHU21623XXSP,2013-10-19 02:51:00,
2013-10-18 22:56:00,49.3,46.1,29.98,ESE,112,0.0,0.0,89,0.00,,,0.00,WUHU21623XXSP,2013-10-19 02:56:00,
2013-10-18 23:01:00,49.3,46.1,29.98,East,90,0.0,0.0,89,0.00,,,0.00,WUHU21623XXSP,2013-10-19 03:01:00,
2013-10-18 23:06:00,49.1,46.0,29.99,East,90,0.0,0.0,89,0.00,,,0.00,WUHU21623XXSP,2013-10-19 03:06:00,
2013-10-18 23:11:00,49.1,46.0,29.99,ESE,112,0.0,0.0,89,0.00,,,0.00,WUHU21623XXSP,2013-10-19 03:11:00,
2013-10-18 23:16:00,49.1,46.0,29.99,East,90,0.0,0.0,89,0.00,,,0.00,WUHU21623XXSP,2013-10-19 03:16:00,
2013-10-18 23:21:00,49.1,46.0,29.98,ESE,112,0.0,0.0,89,0.00,,,0.00,WUHU21623XXSP,2013-10-19 03:21:00,
2013-10-18 23:26:00,49.3,46.1,29.99,ESE,112,0.0,0.0,89,0.00,,,0.00,WUHU21623XXSP,2013-10-19 03:26:00,
2013-10-18 23:31:00,49.1,46.0,29.98,East,90,0.0,0.0,89,0.00,,,0.00,WUHU21623XXSP,2013-10-19 03:31:00,
2013-10-18 23:36:00,49.1,46.0,29.98,East,90,0.0,0.0,89,0.00,,,0.00,WUHU21623XXSP,2013-10-19 03:36:00,
2013-10-18 23:41:00,49.3,46.1,29.98,East,90,0.0,0.0,89,0.00,,,0.00,WUHU21623XXSP,2013-10-19 03:41:00,
2013-10-18 23:46:00,49.3,46.1,29.99,South,180,0.0,0.0,89,0.00,,,0.00,WUHU21623XXSP,2013-10-19 03:46:00,
2013-10-18 23:51:00,49.3,46.1,29.99,ESE,112,0.0,0.0,89,0.00,,,0.00,WUHU21623XXSP,2013-10-19 03:51:00,
2013-10-18 23:57:00,49.3,46.5,29.99,South,180,0.0,0.0,90,0.00,,,0.00,WUHU21623XXSP,2013-10-19 03:57:00,